sensor_id;sensor_type;location;lat;lon;timestamp;P1;durP1;ratioP1;P2;durP2;ratioP2
8474;SDS011;4274;52.012;8.448;2024-01-11T00:00:57;82.53;;;21.93;;
8474;SDS011;4274;52.012;8.448;2024-01-11T00:03:24;83.50;;;22.47;;
8474;SDS011;4274;52.012;8.448;2024-01-11T00:05:49;90.80;;;24.33;;
8474;SDS011;4274;52.012;8.448;2024-01-11T00:08:15;82.30;;;21.17;;
8474;SDS011;4274;52.012;8.448;2024-01-11T00:10:41;98.13;;;24.27;;
8474;SDS011;4274;52.012;8.448;2024-01-11T00:13:07;87.60;;;24.47;;
8474;SDS011;4274;52.012;8.448;2024-01-11T00:15:32;90.53;;;21.47;;
8474;SDS011;4274;52.012;8.448;2024-01-11T00:17:58;81.13;;;22.83;;
8474;SDS011;4274;52.012;8.448;2024-01-11T00:20:23;83.90;;;22.70;;
8474;SDS011;4274;52.012;8.448;2024-01-11T00:22:49;81.37;;;22.80;;
8474;SDS011;4274;52.012;8.448;2024-01-11T00:25:15;86.00;;;22.43;;
8474;SDS011;4274;52.012;8.448;2024-01-11T00:27:41;89.30;;;21.47;;
8474;SDS011;4274;52.012;8.448;2024-01-11T00:30:06;93.43;;;22.27;;
8474;SDS011;4274;52.012;8.448;2024-01-11T00:32:32;83.63;;;23.57;;
8474;SDS011;4274;52.012;8.448;2024-01-11T00:34:58;88.57;;;21.63;;
8474;SDS011;4274;52.012;8.448;2024-01-11T00:37:23;79.53;;;19.20;;
8474;SDS011;4274;52.012;8.448;2024-01-11T00:39:50;86.80;;;23.40;;
8474;SDS011;4274;52.012;8.448;2024-01-11T00:42:15;81.70;;;22.77;;
8474;SDS011;4274;52.012;8.448;2024-01-11T00:44:41;87.43;;;23.70;;
8474;SDS011;4274;52.012;8.448;2024-01-11T00:47:06;84.83;;;22.50;;
8474;SDS011;4274;52.012;8.448;2024-01-11T00:49:32;83.70;;;23.27;;
8474;SDS011;4274;52.012;8.448;2024-01-11T00:51:57;75.50;;;20.37;;
8474;SDS011;4274;52.012;8.448;2024-01-11T00:54:23;84.23;;;22.53;;
8474;SDS011;4274;52.012;8.448;2024-01-11T00:56:49;84.70;;;22.70;;
8474;SDS011;4274;52.012;8.448;2024-01-11T00:59:15;81.27;;;21.57;;
8474;SDS011;4274;52.012;8.448;2024-01-11T01:01:48;81.73;;;22.17;;
8474;SDS011;4274;52.012;8.448;2024-01-11T01:04:14;83.97;;;20.97;;
8474;SDS011;4274;52.012;8.448;2024-01-11T01:06:40;80.47;;;21.23;;
8474;SDS011;4274;52.012;8.448;2024-01-11T01:09:06;82.53;;;22.17;;
8474;SDS011;4274;52.012;8.448;2024-01-11T01:11:32;86.63;;;23.30;;
8474;SDS011;4274;52.012;8.448;2024-01-11T01:13:58;81.13;;;19.60;;
8474;SDS011;4274;52.012;8.448;2024-01-11T01:16:23;78.17;;;20.80;;
8474;SDS011;4274;52.012;8.448;2024-01-11T01:18:49;79.30;;;20.77;;
8474;SDS011;4274;52.012;8.448;2024-01-11T01:21:14;87.10;;;22.50;;
8474;SDS011;4274;52.012;8.448;2024-01-11T01:23:40;77.67;;;19.80;;
8474;SDS011;4274;52.012;8.448;2024-01-11T01:26:06;77.03;;;22.20;;
8474;SDS011;4274;52.012;8.448;2024-01-11T01:28:32;87.60;;;21.13;;
8474;SDS011;4274;52.012;8.448;2024-01-11T01:30:57;88.47;;;21.77;;
8474;SDS011;4274;52.012;8.448;2024-01-11T01:33:23;79.73;;;20.40;;
8474;SDS011;4274;52.012;8.448;2024-01-11T01:35:48;82.23;;;21.80;;
8474;SDS011;4274;52.012;8.448;2024-01-11T01:38:14;71.13;;;19.43;;
8474;SDS011;4274;52.012;8.448;2024-01-11T01:40:40;72.37;;;21.40;;
8474;SDS011;4274;52.012;8.448;2024-01-11T01:43:08;86.50;;;22.07;;
8474;SDS011;4274;52.012;8.448;2024-01-11T01:45:34;82.67;;;23.07;;
8474;SDS011;4274;52.012;8.448;2024-01-11T01:48:00;81.40;;;20.63;;
8474;SDS011;4274;52.012;8.448;2024-01-11T01:50:27;94.37;;;21.47;;
8474;SDS011;4274;52.012;8.448;2024-01-11T01:52:52;81.93;;;21.97;;
8474;SDS011;4274;52.012;8.448;2024-01-11T01:55:20;72.37;;;20.73;;
8474;SDS011;4274;52.012;8.448;2024-01-11T01:57:46;94.00;;;22.63;;
8474;SDS011;4274;52.012;8.448;2024-01-11T02:00:13;79.63;;;21.90;;
8474;SDS011;4274;52.012;8.448;2024-01-11T02:02:39;82.13;;;20.57;;
8474;SDS011;4274;52.012;8.448;2024-01-11T02:05:06;86.83;;;21.77;;
8474;SDS011;4274;52.012;8.448;2024-01-11T02:07:32;79.80;;;20.93;;
8474;SDS011;4274;52.012;8.448;2024-01-11T02:09:58;81.70;;;21.73;;
8474;SDS011;4274;52.012;8.448;2024-01-11T02:12:24;87.43;;;23.10;;
8474;SDS011;4274;52.012;8.448;2024-01-11T02:14:52;80.13;;;20.10;;
8474;SDS011;4274;52.012;8.448;2024-01-11T02:17:18;80.70;;;21.30;;
8474;SDS011;4274;52.012;8.448;2024-01-11T02:19:44;93.57;;;23.80;;
8474;SDS011;4274;52.012;8.448;2024-01-11T02:22:14;80.20;;;22.33;;
8474;SDS011;4274;52.012;8.448;2024-01-11T02:24:46;85.47;;;21.53;;
8474;SDS011;4274;52.012;8.448;2024-01-11T02:27:11;73.73;;;20.97;;
8474;SDS011;4274;52.012;8.448;2024-01-11T02:29:37;71.80;;;20.27;;
8474;SDS011;4274;52.012;8.448;2024-01-11T02:32:03;87.77;;;21.10;;
8474;SDS011;4274;52.012;8.448;2024-01-11T02:34:31;79.47;;;21.70;;
8474;SDS011;4274;52.012;8.448;2024-01-11T02:36:56;79.43;;;20.90;;
8474;SDS011;4274;52.012;8.448;2024-01-11T02:39:22;83.93;;;21.20;;
8474;SDS011;4274;52.012;8.448;2024-01-11T02:41:50;82.47;;;19.90;;
8474;SDS011;4274;52.012;8.448;2024-01-11T02:44:16;69.80;;;20.40;;
8474;SDS011;4274;52.012;8.448;2024-01-11T02:46:42;78.00;;;19.00;;
8474;SDS011;4274;52.012;8.448;2024-01-11T02:49:07;90.17;;;23.00;;
8474;SDS011;4274;52.012;8.448;2024-01-11T02:51:33;80.03;;;21.33;;
8474;SDS011;4274;52.012;8.448;2024-01-11T02:53:59;84.10;;;21.10;;
8474;SDS011;4274;52.012;8.448;2024-01-11T02:56:24;81.23;;;20.07;;
8474;SDS011;4274;52.012;8.448;2024-01-11T02:58:50;77.97;;;20.03;;
8474;SDS011;4274;52.012;8.448;2024-01-11T03:01:15;80.83;;;22.67;;
8474;SDS011;4274;52.012;8.448;2024-01-11T03:03:41;78.47;;;21.33;;
8474;SDS011;4274;52.012;8.448;2024-01-11T03:06:07;95.17;;;25.20;;
8474;SDS011;4274;52.012;8.448;2024-01-11T03:08:33;79.97;;;23.17;;
8474;SDS011;4274;52.012;8.448;2024-01-11T03:10:58;73.50;;;21.93;;
8474;SDS011;4274;52.012;8.448;2024-01-11T03:13:24;81.23;;;23.87;;
8474;SDS011;4274;52.012;8.448;2024-01-11T03:15:49;85.47;;;21.63;;
8474;SDS011;4274;52.012;8.448;2024-01-11T03:18:15;83.90;;;22.80;;
8474;SDS011;4274;52.012;8.448;2024-01-11T03:20:41;80.33;;;20.37;;
8474;SDS011;4274;52.012;8.448;2024-01-11T03:23:06;81.60;;;22.27;;
8474;SDS011;4274;52.012;8.448;2024-01-11T03:25:32;86.90;;;20.17;;
8474;SDS011;4274;52.012;8.448;2024-01-11T03:27:57;86.77;;;22.77;;
8474;SDS011;4274;52.012;8.448;2024-01-11T03:30:26;76.50;;;17.60;;
8474;SDS011;4274;52.012;8.448;2024-01-11T03:32:51;75.57;;;20.23;;
8474;SDS011;4274;52.012;8.448;2024-01-11T03:35:17;72.20;;;19.40;;
8474;SDS011;4274;52.012;8.448;2024-01-11T03:37:43;76.13;;;20.03;;
8474;SDS011;4274;52.012;8.448;2024-01-11T03:40:10;73.80;;;19.70;;
8474;SDS011;4274;52.012;8.448;2024-01-11T03:42:36;86.13;;;21.67;;
8474;SDS011;4274;52.012;8.448;2024-01-11T03:45:01;78.03;;;21.00;;
8474;SDS011;4274;52.012;8.448;2024-01-11T03:47:28;72.87;;;20.70;;
8474;SDS011;4274;52.012;8.448;2024-01-11T03:49:53;83.37;;;21.37;;
8474;SDS011;4274;52.012;8.448;2024-01-11T03:52:19;84.20;;;22.70;;
8474;SDS011;4274;52.012;8.448;2024-01-11T03:54:45;74.47;;;18.43;;
8474;SDS011;4274;52.012;8.448;2024-01-11T03:57:10;71.57;;;19.90;;
8474;SDS011;4274;52.012;8.448;2024-01-11T03:59:36;89.60;;;21.97;;
8474;SDS011;4274;52.012;8.448;2024-01-11T04:02:02;76.93;;;20.17;;
8474;SDS011;4274;52.012;8.448;2024-01-11T04:04:27;78.03;;;18.70;;
8474;SDS011;4274;52.012;8.448;2024-01-11T04:06:53;75.77;;;20.73;;
8474;SDS011;4274;52.012;8.448;2024-01-11T04:09:18;79.57;;;21.03;;
8474;SDS011;4274;52.012;8.448;2024-01-11T04:11:45;65.17;;;17.30;;
8474;SDS011;4274;52.012;8.448;2024-01-11T04:14:11;76.23;;;19.57;;
8474;SDS011;4274;52.012;8.448;2024-01-11T04:16:40;75.67;;;19.93;;
8474;SDS011;4274;52.012;8.448;2024-01-11T04:19:07;83.40;;;23.87;;
8474;SDS011;4274;52.012;8.448;2024-01-11T04:21:32;76.17;;;22.50;;
8474;SDS011;4274;52.012;8.448;2024-01-11T04:23:59;80.20;;;22.83;;
8474;SDS011;4274;52.012;8.448;2024-01-11T04:26:25;88.63;;;20.90;;
8474;SDS011;4274;52.012;8.448;2024-01-11T04:28:51;70.20;;;21.20;;
8474;SDS011;4274;52.012;8.448;2024-01-11T04:31:17;77.73;;;20.80;;
8474;SDS011;4274;52.012;8.448;2024-01-11T04:33:45;72.83;;;19.60;;
8474;SDS011;4274;52.012;8.448;2024-01-11T04:36:12;77.90;;;19.43;;
8474;SDS011;4274;52.012;8.448;2024-01-11T04:38:37;81.83;;;19.57;;
8474;SDS011;4274;52.012;8.448;2024-01-11T04:41:10;75.27;;;20.27;;
8474;SDS011;4274;52.012;8.448;2024-01-11T04:43:39;74.63;;;18.97;;
8474;SDS011;4274;52.012;8.448;2024-01-11T04:46:39;76.43;;;20.90;;
8474;SDS011;4274;52.012;8.448;2024-01-11T04:48:58;74.43;;;19.13;;
8474;SDS011;4274;52.012;8.448;2024-01-11T04:51:23;72.73;;;19.50;;
8474;SDS011;4274;52.012;8.448;2024-01-11T04:53:49;88.67;;;21.30;;
8474;SDS011;4274;52.012;8.448;2024-01-11T04:56:15;83.40;;;21.93;;
8474;SDS011;4274;52.012;8.448;2024-01-11T04:58:42;73.37;;;20.13;;
8474;SDS011;4274;52.012;8.448;2024-01-11T05:01:15;70.87;;;19.90;;
8474;SDS011;4274;52.012;8.448;2024-01-11T05:03:42;82.33;;;21.90;;
8474;SDS011;4274;52.012;8.448;2024-01-11T05:06:08;82.53;;;20.10;;
8474;SDS011;4274;52.012;8.448;2024-01-11T05:08:39;80.10;;;19.87;;
8474;SDS011;4274;52.012;8.448;2024-01-11T05:11:05;74.07;;;20.20;;
8474;SDS011;4274;52.012;8.448;2024-01-11T05:13:30;74.80;;;18.10;;
8474;SDS011;4274;52.012;8.448;2024-01-11T05:15:56;76.03;;;20.53;;
8474;SDS011;4274;52.012;8.448;2024-01-11T05:18:21;78.27;;;21.13;;
8474;SDS011;4274;52.012;8.448;2024-01-11T05:20:47;88.30;;;22.30;;
8474;SDS011;4274;52.012;8.448;2024-01-11T05:23:13;73.63;;;19.53;;
8474;SDS011;4274;52.012;8.448;2024-01-11T05:25:38;73.33;;;19.60;;
8474;SDS011;4274;52.012;8.448;2024-01-11T05:28:04;70.73;;;17.43;;
8474;SDS011;4274;52.012;8.448;2024-01-11T05:30:30;74.53;;;19.60;;
8474;SDS011;4274;52.012;8.448;2024-01-11T05:32:55;77.53;;;19.00;;
8474;SDS011;4274;52.012;8.448;2024-01-11T05:35:21;73.20;;;19.80;;
8474;SDS011;4274;52.012;8.448;2024-01-11T05:37:49;70.40;;;20.37;;
8474;SDS011;4274;52.012;8.448;2024-01-11T05:40:19;86.70;;;25.70;;
8474;SDS011;4274;52.012;8.448;2024-01-11T05:42:45;73.77;;;20.10;;
8474;SDS011;4274;52.012;8.448;2024-01-11T05:45:10;67.87;;;19.37;;
8474;SDS011;4274;52.012;8.448;2024-01-11T05:47:36;81.77;;;21.87;;
8474;SDS011;4274;52.012;8.448;2024-01-11T05:50:02;74.77;;;22.97;;
8474;SDS011;4274;52.012;8.448;2024-01-11T05:52:27;80.93;;;21.30;;
8474;SDS011;4274;52.012;8.448;2024-01-11T05:54:53;81.67;;;18.80;;
8474;SDS011;4274;52.012;8.448;2024-01-11T05:57:19;80.70;;;19.70;;
8474;SDS011;4274;52.012;8.448;2024-01-11T05:59:44;78.70;;;21.20;;
8474;SDS011;4274;52.012;8.448;2024-01-11T06:02:10;85.10;;;23.87;;
8474;SDS011;4274;52.012;8.448;2024-01-11T06:04:36;85.70;;;23.97;;
8474;SDS011;4274;52.012;8.448;2024-01-11T06:07:01;77.67;;;21.47;;
8474;SDS011;4274;52.012;8.448;2024-01-11T06:09:27;88.17;;;24.40;;
8474;SDS011;4274;52.012;8.448;2024-01-11T06:11:53;88.17;;;22.00;;
8474;SDS011;4274;52.012;8.448;2024-01-11T06:14:18;82.33;;;21.33;;
8474;SDS011;4274;52.012;8.448;2024-01-11T06:16:44;82.60;;;20.47;;
8474;SDS011;4274;52.012;8.448;2024-01-11T06:19:09;79.73;;;20.63;;
8474;SDS011;4274;52.012;8.448;2024-01-11T06:21:35;78.10;;;19.73;;
8474;SDS011;4274;52.012;8.448;2024-01-11T06:24:01;75.20;;;18.87;;
8474;SDS011;4274;52.012;8.448;2024-01-11T06:26:28;75.07;;;18.50;;
8474;SDS011;4274;52.012;8.448;2024-01-11T06:28:54;72.27;;;19.17;;
8474;SDS011;4274;52.012;8.448;2024-01-11T06:31:19;72.57;;;17.93;;
8474;SDS011;4274;52.012;8.448;2024-01-11T06:33:45;84.10;;;21.13;;
8474;SDS011;4274;52.012;8.448;2024-01-11T06:36:11;83.83;;;20.43;;
8474;SDS011;4274;52.012;8.448;2024-01-11T06:38:36;73.03;;;18.97;;
8474;SDS011;4274;52.012;8.448;2024-01-11T06:41:02;72.17;;;17.90;;
8474;SDS011;4274;52.012;8.448;2024-01-11T06:43:27;76.17;;;21.23;;
8474;SDS011;4274;52.012;8.448;2024-01-11T06:45:53;68.43;;;18.20;;
8474;SDS011;4274;52.012;8.448;2024-01-11T06:48:19;69.10;;;19.20;;
8474;SDS011;4274;52.012;8.448;2024-01-11T06:50:44;66.07;;;20.03;;
8474;SDS011;4274;52.012;8.448;2024-01-11T06:53:10;71.77;;;19.37;;
8474;SDS011;4274;52.012;8.448;2024-01-11T06:55:36;71.77;;;19.17;;
8474;SDS011;4274;52.012;8.448;2024-01-11T06:58:01;76.77;;;18.70;;
8474;SDS011;4274;52.012;8.448;2024-01-11T07:00:27;80.27;;;19.93;;
8474;SDS011;4274;52.012;8.448;2024-01-11T07:02:53;75.97;;;20.57;;
8474;SDS011;4274;52.012;8.448;2024-01-11T07:05:18;75.93;;;21.27;;
8474;SDS011;4274;52.012;8.448;2024-01-11T07:07:44;69.83;;;18.60;;
8474;SDS011;4274;52.012;8.448;2024-01-11T07:10:10;69.97;;;17.83;;
8474;SDS011;4274;52.012;8.448;2024-01-11T07:12:37;82.07;;;19.57;;
8474;SDS011;4274;52.012;8.448;2024-01-11T07:15:04;73.77;;;19.10;;
8474;SDS011;4274;52.012;8.448;2024-01-11T07:17:30;98.67;;;27.97;;
8474;SDS011;4274;52.012;8.448;2024-01-11T07:19:55;73.47;;;21.67;;
8474;SDS011;4274;52.012;8.448;2024-01-11T07:22:21;78.03;;;21.60;;
8474;SDS011;4274;52.012;8.448;2024-01-11T07:24:46;80.10;;;20.37;;
8474;SDS011;4274;52.012;8.448;2024-01-11T07:27:12;86.17;;;22.73;;
8474;SDS011;4274;52.012;8.448;2024-01-11T07:29:38;79.33;;;20.77;;
8474;SDS011;4274;52.012;8.448;2024-01-11T07:32:03;90.00;;;22.30;;
8474;SDS011;4274;52.012;8.448;2024-01-11T07:34:29;82.67;;;22.17;;
8474;SDS011;4274;52.012;8.448;2024-01-11T07:36:55;81.00;;;22.70;;
8474;SDS011;4274;52.012;8.448;2024-01-11T07:39:21;83.77;;;21.10;;
8474;SDS011;4274;52.012;8.448;2024-01-11T07:41:47;84.10;;;23.63;;
8474;SDS011;4274;52.012;8.448;2024-01-11T07:44:13;79.53;;;20.63;;
8474;SDS011;4274;52.012;8.448;2024-01-11T07:46:39;69.90;;;20.30;;
8474;SDS011;4274;52.012;8.448;2024-01-11T07:49:05;81.07;;;20.07;;
8474;SDS011;4274;52.012;8.448;2024-01-11T07:51:31;80.07;;;22.00;;
8474;SDS011;4274;52.012;8.448;2024-01-11T07:53:57;92.60;;;21.50;;
8474;SDS011;4274;52.012;8.448;2024-01-11T07:56:23;74.40;;;19.80;;
8474;SDS011;4274;52.012;8.448;2024-01-11T07:58:49;81.40;;;20.37;;
8474;SDS011;4274;52.012;8.448;2024-01-11T08:01:15;75.77;;;20.83;;
8474;SDS011;4274;52.012;8.448;2024-01-11T08:03:41;85.00;;;20.83;;
8474;SDS011;4274;52.012;8.448;2024-01-11T08:06:06;79.22;;;21.02;;
8474;SDS011;4274;52.012;8.448;2024-01-11T08:08:32;71.17;;;20.83;;
8474;SDS011;4274;52.012;8.448;2024-01-11T08:10:58;83.00;;;23.20;;
8474;SDS011;4274;52.012;8.448;2024-01-11T08:13:24;85.20;;;21.17;;
8474;SDS011;4274;52.012;8.448;2024-01-11T08:15:50;72.47;;;18.83;;
8474;SDS011;4274;52.012;8.448;2024-01-11T08:18:17;68.30;;;19.70;;
8474;SDS011;4274;52.012;8.448;2024-01-11T08:20:43;80.27;;;18.73;;
8474;SDS011;4274;52.012;8.448;2024-01-11T08:23:09;65.87;;;17.90;;
8474;SDS011;4274;52.012;8.448;2024-01-11T08:25:35;66.17;;;19.03;;
8474;SDS011;4274;52.012;8.448;2024-01-11T08:28:00;67.50;;;18.93;;
8474;SDS011;4274;52.012;8.448;2024-01-11T08:30:27;72.53;;;18.00;;
8474;SDS011;4274;52.012;8.448;2024-01-11T08:32:53;71.87;;;19.50;;
8474;SDS011;4274;52.012;8.448;2024-01-11T08:35:20;71.47;;;18.50;;
8474;SDS011;4274;52.012;8.448;2024-01-11T08:37:46;71.00;;;18.00;;
8474;SDS011;4274;52.012;8.448;2024-01-11T08:40:11;68.90;;;16.50;;
8474;SDS011;4274;52.012;8.448;2024-01-11T08:42:37;64.20;;;16.97;;
8474;SDS011;4274;52.012;8.448;2024-01-11T08:45:04;65.20;;;18.23;;
8474;SDS011;4274;52.012;8.448;2024-01-11T08:47:32;69.97;;;17.13;;
8474;SDS011;4274;52.012;8.448;2024-01-11T08:49:58;65.40;;;17.37;;
8474;SDS011;4274;52.012;8.448;2024-01-11T08:52:24;67.33;;;15.90;;
8474;SDS011;4274;52.012;8.448;2024-01-11T08:54:50;66.03;;;16.87;;
8474;SDS011;4274;52.012;8.448;2024-01-11T08:57:15;68.93;;;15.87;;
8474;SDS011;4274;52.012;8.448;2024-01-11T08:59:42;78.10;;;17.93;;
8474;SDS011;4274;52.012;8.448;2024-01-11T09:02:07;68.23;;;17.30;;
8474;SDS011;4274;52.012;8.448;2024-01-11T09:04:33;71.67;;;17.97;;
8474;SDS011;4274;52.012;8.448;2024-01-11T09:06:59;72.60;;;17.47;;
8474;SDS011;4274;52.012;8.448;2024-01-11T09:09:24;64.30;;;16.50;;
8474;SDS011;4274;52.012;8.448;2024-01-11T09:11:50;67.73;;;17.30;;
8474;SDS011;4274;52.012;8.448;2024-01-11T09:14:15;68.60;;;17.10;;
8474;SDS011;4274;52.012;8.448;2024-01-11T09:16:41;69.73;;;18.33;;
8474;SDS011;4274;52.012;8.448;2024-01-11T09:19:07;70.30;;;17.20;;
8474;SDS011;4274;52.012;8.448;2024-01-11T09:21:32;66.43;;;17.03;;
8474;SDS011;4274;52.012;8.448;2024-01-11T09:23:58;70.73;;;18.40;;
8474;SDS011;4274;52.012;8.448;2024-01-11T09:26:23;74.17;;;18.60;;
8474;SDS011;4274;52.012;8.448;2024-01-11T09:28:49;70.37;;;17.37;;
8474;SDS011;4274;52.012;8.448;2024-01-11T09:31:15;71.10;;;20.60;;
8474;SDS011;4274;52.012;8.448;2024-01-11T09:33:40;72.80;;;19.60;;
8474;SDS011;4274;52.012;8.448;2024-01-11T09:36:10;69.90;;;18.00;;
8474;SDS011;4274;52.012;8.448;2024-01-11T09:38:35;75.80;;;19.77;;
8474;SDS011;4274;52.012;8.448;2024-01-11T09:41:06;74.57;;;22.07;;
8474;SDS011;4274;52.012;8.448;2024-01-11T09:43:33;72.93;;;19.23;;
8474;SDS011;4274;52.012;8.448;2024-01-11T09:46:06;69.37;;;20.00;;
8474;SDS011;4274;52.012;8.448;2024-01-11T09:48:32;65.60;;;16.87;;
8474;SDS011;4274;52.012;8.448;2024-01-11T09:51:00;68.67;;;17.87;;
8474;SDS011;4274;52.012;8.448;2024-01-11T09:53:28;73.20;;;19.07;;
8474;SDS011;4274;52.012;8.448;2024-01-11T09:55:58;66.50;;;16.40;;
8474;SDS011;4274;52.012;8.448;2024-01-11T09:58:23;71.80;;;18.20;;
8474;SDS011;4274;52.012;8.448;2024-01-11T10:00:54;66.30;;;17.53;;
8474;SDS011;4274;52.012;8.448;2024-01-11T10:03:21;73.23;;;16.87;;
8474;SDS011;4274;52.012;8.448;2024-01-11T10:05:51;69.53;;;16.63;;
8474;SDS011;4274;52.012;8.448;2024-01-11T10:08:23;68.47;;;17.43;;
8474;SDS011;4274;52.012;8.448;2024-01-11T10:10:49;68.13;;;18.53;;
8474;SDS011;4274;52.012;8.448;2024-01-11T10:13:18;73.50;;;19.60;;
8474;SDS011;4274;52.012;8.448;2024-01-11T10:15:43;69.50;;;18.97;;
8474;SDS011;4274;52.012;8.448;2024-01-11T10:18:09;73.20;;;19.67;;
8474;SDS011;4274;52.012;8.448;2024-01-11T10:20:35;74.33;;;20.40;;
8474;SDS011;4274;52.012;8.448;2024-01-11T10:23:02;73.30;;;20.90;;
8474;SDS011;4274;52.012;8.448;2024-01-11T10:25:28;78.10;;;20.80;;
8474;SDS011;4274;52.012;8.448;2024-01-11T10:27:54;72.57;;;20.13;;
8474;SDS011;4274;52.012;8.448;2024-01-11T10:30:19;72.73;;;19.67;;
8474;SDS011;4274;52.012;8.448;2024-01-11T10:32:47;70.87;;;21.37;;
8474;SDS011;4274;52.012;8.448;2024-01-11T10:35:13;67.50;;;18.87;;
8474;SDS011;4274;52.012;8.448;2024-01-11T10:37:39;67.50;;;17.67;;
8474;SDS011;4274;52.012;8.448;2024-01-11T10:40:06;69.20;;;19.10;;
8474;SDS011;4274;52.012;8.448;2024-01-11T10:42:36;73.40;;;19.97;;
8474;SDS011;4274;52.012;8.448;2024-01-11T10:45:07;59.60;;;13.63;;
8474;SDS011;4274;52.012;8.448;2024-01-11T10:47:39;62.00;;;13.30;;
8474;SDS011;4274;52.012;8.448;2024-01-11T10:50:22;58.40;;;12.63;;
8474;SDS011;4274;52.012;8.448;2024-01-11T10:53:07;56.70;;;13.13;;
8474;SDS011;4274;52.012;8.448;2024-01-11T10:55:58;56.67;;;12.27;;
8474;SDS011;4274;52.012;8.448;2024-01-11T10:58:27;59.53;;;13.13;;
8474;SDS011;4274;52.012;8.448;2024-01-11T11:00:54;56.50;;;11.10;;
8474;SDS011;4274;52.012;8.448;2024-01-11T11:03:21;56.20;;;10.80;;
8474;SDS011;4274;52.012;8.448;2024-01-11T11:05:52;54.40;;;9.80;;
8474;SDS011;4274;52.012;8.448;2024-01-11T11:08:18;55.10;;;9.60;;
8474;SDS011;4274;52.012;8.448;2024-01-11T11:10:45;51.90;;;9.10;;
8474;SDS011;4274;52.012;8.448;2024-01-11T11:13:14;55.13;;;8.90;;
8474;SDS011;4274;52.012;8.448;2024-01-11T11:15:40;53.90;;;9.23;;
8474;SDS011;4274;52.012;8.448;2024-01-11T11:18:10;53.67;;;9.37;;
8474;SDS011;4274;52.012;8.448;2024-01-11T11:20:38;51.27;;;9.50;;
8474;SDS011;4274;52.012;8.448;2024-01-11T11:23:05;52.03;;;9.60;;
8474;SDS011;4274;52.012;8.448;2024-01-11T11:25:31;53.90;;;9.90;;
8474;SDS011;4274;52.012;8.448;2024-01-11T11:27:58;59.80;;;12.47;;
8474;SDS011;4274;52.012;8.448;2024-01-11T11:30:26;57.50;;;11.77;;
8474;SDS011;4274;52.012;8.448;2024-01-11T11:32:52;53.70;;;10.20;;
8474;SDS011;4274;52.012;8.448;2024-01-11T11:35:22;54.57;;;9.83;;
8474;SDS011;4274;52.012;8.448;2024-01-11T11:37:49;61.10;;;10.93;;
8474;SDS011;4274;52.012;8.448;2024-01-11T11:40:22;54.27;;;10.40;;
8474;SDS011;4274;52.012;8.448;2024-01-11T11:42:58;60.33;;;12.20;;
8474;SDS011;4274;52.012;8.448;2024-01-11T11:45:25;56.00;;;11.90;;
8474;SDS011;4274;52.012;8.448;2024-01-11T11:47:51;55.83;;;11.87;;
8474;SDS011;4274;52.012;8.448;2024-01-11T11:50:17;57.60;;;11.27;;
8474;SDS011;4274;52.012;8.448;2024-01-11T11:52:47;56.40;;;10.03;;
8474;SDS011;4274;52.012;8.448;2024-01-11T11:55:22;61.33;;;11.73;;
8474;SDS011;4274;52.012;8.448;2024-01-11T11:57:50;60.50;;;11.27;;
8474;SDS011;4274;52.012;8.448;2024-01-11T12:00:17;65.37;;;12.23;;
8474;SDS011;4274;52.012;8.448;2024-01-11T12:02:43;56.57;;;10.80;;
8474;SDS011;4274;52.012;8.448;2024-01-11T12:05:12;56.63;;;10.90;;
8474;SDS011;4274;52.012;8.448;2024-01-11T12:07:37;52.47;;;10.00;;
8474;SDS011;4274;52.012;8.448;2024-01-11T12:10:04;57.57;;;9.27;;
8474;SDS011;4274;52.012;8.448;2024-01-11T12:12:30;53.03;;;10.00;;
8474;SDS011;4274;52.012;8.448;2024-01-11T12:14:57;59.60;;;11.90;;
8474;SDS011;4274;52.012;8.448;2024-01-11T12:17:23;54.90;;;9.50;;
8474;SDS011;4274;52.012;8.448;2024-01-11T12:19:51;49.67;;;8.40;;
8474;SDS011;4274;52.012;8.448;2024-01-11T12:22:16;54.25;;;10.02;;
8474;SDS011;4274;52.012;8.448;2024-01-11T12:24:42;55.50;;;12.60;;
8474;SDS011;4274;52.012;8.448;2024-01-11T12:27:08;54.77;;;11.17;;
8474;SDS011;4274;52.012;8.448;2024-01-11T12:29:34;63.23;;;12.37;;
8474;SDS011;4274;52.012;8.448;2024-01-11T12:31:59;53.80;;;9.60;;
8474;SDS011;4274;52.012;8.448;2024-01-11T12:34:25;51.40;;;9.93;;
8474;SDS011;4274;52.012;8.448;2024-01-11T12:36:52;55.53;;;11.30;;
8474;SDS011;4274;52.012;8.448;2024-01-11T12:39:19;56.57;;;11.00;;
8474;SDS011;4274;52.012;8.448;2024-01-11T12:41:47;54.23;;;10.50;;
8474;SDS011;4274;52.012;8.448;2024-01-11T12:44:16;57.97;;;11.83;;
8474;SDS011;4274;52.012;8.448;2024-01-11T12:46:42;50.43;;;9.90;;
8474;SDS011;4274;52.012;8.448;2024-01-11T12:49:09;52.27;;;10.20;;
8474;SDS011;4274;52.012;8.448;2024-01-11T12:51:35;49.87;;;8.67;;
8474;SDS011;4274;52.012;8.448;2024-01-11T12:54:01;52.77;;;10.93;;
8474;SDS011;4274;52.012;8.448;2024-01-11T12:56:29;59.50;;;11.70;;
8474;SDS011;4274;52.012;8.448;2024-01-11T12:59:04;53.00;;;11.50;;
8474;SDS011;4274;52.012;8.448;2024-01-11T13:01:31;52.77;;;9.03;;
8474;SDS011;4274;52.012;8.448;2024-01-11T13:03:57;51.20;;;9.13;;
8474;SDS011;4274;52.012;8.448;2024-01-11T13:06:23;50.67;;;8.70;;
8474;SDS011;4274;52.012;8.448;2024-01-11T13:08:50;48.50;;;9.00;;
8474;SDS011;4274;52.012;8.448;2024-01-11T13:11:16;47.70;;;8.10;;
8474;SDS011;4274;52.012;8.448;2024-01-11T13:13:42;47.03;;;8.60;;
8474;SDS011;4274;52.012;8.448;2024-01-11T13:16:10;56.20;;;9.27;;
8474;SDS011;4274;52.012;8.448;2024-01-11T13:18:39;50.70;;;8.87;;
8474;SDS011;4274;52.012;8.448;2024-01-11T13:21:05;54.77;;;10.40;;
8474;SDS011;4274;52.012;8.448;2024-01-11T13:23:31;52.57;;;8.83;;
8474;SDS011;4274;52.012;8.448;2024-01-11T13:25:57;53.30;;;9.47;;
8474;SDS011;4274;52.012;8.448;2024-01-11T13:28:23;56.83;;;9.33;;
8474;SDS011;4274;52.012;8.448;2024-01-11T13:30:48;49.50;;;9.93;;
8474;SDS011;4274;52.012;8.448;2024-01-11T13:33:14;53.53;;;9.37;;
8474;SDS011;4274;52.012;8.448;2024-01-11T13:35:42;60.43;;;9.60;;
8474;SDS011;4274;52.012;8.448;2024-01-11T13:38:08;57.53;;;10.33;;
8474;SDS011;4274;52.012;8.448;2024-01-11T13:40:34;57.50;;;11.07;;
8474;SDS011;4274;52.012;8.448;2024-01-11T13:43:00;58.60;;;10.73;;
8474;SDS011;4274;52.012;8.448;2024-01-11T13:45:27;48.43;;;9.20;;
8474;SDS011;4274;52.012;8.448;2024-01-11T13:47:54;64.07;;;11.90;;
8474;SDS011;4274;52.012;8.448;2024-01-11T13:50:20;60.70;;;11.83;;
8474;SDS011;4274;52.012;8.448;2024-01-11T13:52:51;57.27;;;11.27;;
8474;SDS011;4274;52.012;8.448;2024-01-11T13:55:17;56.97;;;11.33;;
8474;SDS011;4274;52.012;8.448;2024-01-11T13:57:43;54.73;;;10.83;;
8474;SDS011;4274;52.012;8.448;2024-01-11T14:00:09;64.80;;;11.87;;
8474;SDS011;4274;52.012;8.448;2024-01-11T14:02:38;61.03;;;10.50;;
8474;SDS011;4274;52.012;8.448;2024-01-11T14:05:05;58.20;;;11.63;;
8474;SDS011;4274;52.012;8.448;2024-01-11T14:07:34;58.97;;;11.10;;
8474;SDS011;4274;52.012;8.448;2024-01-11T14:10:00;59.23;;;12.30;;
8474;SDS011;4274;52.012;8.448;2024-01-11T14:12:25;57.23;;;10.10;;
8474;SDS011;4274;52.012;8.448;2024-01-11T14:14:51;54.97;;;11.47;;
8474;SDS011;4274;52.012;8.448;2024-01-11T14:17:17;56.03;;;10.77;;
8474;SDS011;4274;52.012;8.448;2024-01-11T14:19:42;58.20;;;11.20;;
8474;SDS011;4274;52.012;8.448;2024-01-11T14:22:08;54.27;;;10.90;;
8474;SDS011;4274;52.012;8.448;2024-01-11T14:24:33;56.77;;;11.13;;
8474;SDS011;4274;52.012;8.448;2024-01-11T14:26:59;59.47;;;12.00;;
8474;SDS011;4274;52.012;8.448;2024-01-11T14:29:24;53.03;;;11.57;;
8474;SDS011;4274;52.012;8.448;2024-01-11T14:31:50;63.23;;;11.80;;
8474;SDS011;4274;52.012;8.448;2024-01-11T14:34:16;67.63;;;12.97;;
8474;SDS011;4274;52.012;8.448;2024-01-11T14:36:41;62.67;;;12.40;;
8474;SDS011;4274;52.012;8.448;2024-01-11T14:39:07;61.07;;;12.00;;
8474;SDS011;4274;52.012;8.448;2024-01-11T14:41:33;61.10;;;13.33;;
8474;SDS011;4274;52.012;8.448;2024-01-11T14:43:59;62.20;;;12.00;;